sensor_id;sensor_type;location;lat;lon;timestamp;pressure;altitude;pressure_sealevel;temperature;humidity
21290;BME280;10804;48.988;2.408;2023-04-25T00:01:23;100407.59;;;13.20;61.30
21290;BME280;10804;48.988;2.408;2023-04-25T00:03:50;100405.03;;;13.18;61.16
21290;BME280;10804;48.988;2.408;2023-04-25T00:06:17;100414.69;;;13.18;60.87
21290;BME280;10804;48.988;2.408;2023-04-25T00:08:45;100410.28;;;13.18;61.33
21290;BME280;10804;48.988;2.408;2023-04-25T00:11:12;100410.28;;;13.18;61.05
21290;BME280;10804;48.988;2.408;2023-04-25T00:13:39;100401.63;;;13.16;61.19
21290;BME280;10804;48.988;2.408;2023-04-25T00:16:07;100403.47;;;13.14;60.99
21290;BME280;10804;48.988;2.408;2023-04-25T00:18:36;100399.06;;;13.15;60.97
21290;BME280;10804;48.988;2.408;2023-04-25T00:21:03;100397.38;;;13.14;61.36
21290;BME280;10804;48.988;2.408;2023-04-25T00:23:32;100405.28;;;13.12;60.99
21290;BME280;10804;48.988;2.408;2023-04-25T00:26:02;100407.06;;;13.12;61.23
21290;BME280;10804;48.988;2.408;2023-04-25T00:28:29;100405.41;;;13.09;61.19
21290;BME280;10804;48.988;2.408;2023-04-25T00:30:57;100408.09;;;13.08;61.16
21290;BME280;10804;48.988;2.408;2023-04-25T00:33:24;100405.56;;;13.06;61.46
21290;BME280;10804;48.988;2.408;2023-04-25T00:35:53;100399.47;;;13.06;61.22
21290;BME280;10804;48.988;2.408;2023-04-25T00:38:20;100399.50;;;13.04;61.47
21290;BME280;10804;48.988;2.408;2023-04-25T00:40:47;100403.03;;;13.03;61.42
21290;BME280;10804;48.988;2.408;2023-04-25T00:43:15;100401.47;;;12.99;61.39
21290;BME280;10804;48.988;2.408;2023-04-25T00:45:43;100412.78;;;13.00;61.37
21290;BME280;10804;48.988;2.408;2023-04-25T00:48:11;100403.44;;;12.94;61.41
21290;BME280;10804;48.988;2.408;2023-04-25T00:50:39;100412.06;;;12.96;61.31
21290;BME280;10804;48.988;2.408;2023-04-25T00:53:07;100408.66;;;12.94;61.50
21290;BME280;10804;48.988;2.408;2023-04-25T00:55:36;100412.13;;;12.95;61.42
21290;BME280;10804;48.988;2.408;2023-04-25T00:58:03;100402.72;;;12.89;61.35
21290;BME280;10804;48.988;2.408;2023-04-25T01:00:31;100415.00;;;12.87;61.23
21290;BME280;10804;48.988;2.408;2023-04-25T01:02:58;100413.31;;;12.86;61.49
21290;BME280;10804;48.988;2.408;2023-04-25T01:05:26;100422.91;;;12.86;61.51
21290;BME280;10804;48.988;2.408;2023-04-25T01:07:53;100409.03;;;12.84;61.51
21290;BME280;10804;48.988;2.408;2023-04-25T01:10:23;100411.75;;;12.82;61.67
21290;BME280;10804;48.988;2.408;2023-04-25T01:12:50;100414.41;;;12.81;61.66
21290;BME280;10804;48.988;2.408;2023-04-25T01:15:17;100411.03;;;12.79;61.55
21290;BME280;10804;48.988;2.408;2023-04-25T01:17:45;100406.75;;;12.76;61.72
21290;BME280;10804;48.988;2.408;2023-04-25T01:20:13;100410.28;;;12.75;61.38
21290;BME280;10804;48.988;2.408;2023-04-25T01:22:43;100407.78;;;12.72;61.51
21290;BME280;10804;48.988;2.408;2023-04-25T01:25:11;100410.38;;;12.72;61.60
21290;BME280;10804;48.988;2.408;2023-04-25T01:27:39;100406.13;;;12.70;61.89
21290;BME280;10804;48.988;2.408;2023-04-25T01:30:08;100407.13;;;12.67;61.66
21290;BME280;10804;48.988;2.408;2023-04-25T01:32:37;100405.38;;;12.66;61.61
21290;BME280;10804;48.988;2.408;2023-04-25T01:35:06;100410.75;;;12.63;61.58
21290;BME280;10804;48.988;2.408;2023-04-25T01:37:35;100409.00;;;12.64;61.63
21290;BME280;10804;48.988;2.408;2023-04-25T01:40:06;100399.56;;;12.60;61.92
21290;BME280;10804;48.988;2.408;2023-04-25T01:42:35;100406.50;;;12.61;61.67
21290;BME280;10804;48.988;2.408;2023-04-25T01:45:04;100402.22;;;12.58;61.91
21290;BME280;10804;48.988;2.408;2023-04-25T01:47:33;100404.97;;;12.55;61.81
21290;BME280;10804;48.988;2.408;2023-04-25T01:50:01;100409.41;;;12.53;61.77
21290;BME280;10804;48.988;2.408;2023-04-25T01:52:29;100411.22;;;12.51;61.98
21290;BME280;10804;48.988;2.408;2023-04-25T01:54:57;100410.38;;;12.51;61.86
21290;BME280;10804;48.988;2.408;2023-04-25T01:57:29;100406.97;;;12.49;61.64
21290;BME280;10804;48.988;2.408;2023-04-25T01:59:59;100407.22;;;12.43;61.95
21290;BME280;10804;48.988;2.408;2023-04-25T02:02:38;100406.25;;;12.45;61.88
21290;BME280;10804;48.988;2.408;2023-04-25T02:05:15;100414.13;;;12.44;61.71
21290;BME280;10804;48.988;2.408;2023-04-25T02:07:44;100411.56;;;12.42;61.96
21290;BME280;10804;48.988;2.408;2023-04-25T02:10:11;100418.63;;;12.40;61.99
21290;BME280;10804;48.988;2.408;2023-04-25T02:12:56;100420.47;;;12.38;62.14
21290;BME280;10804;48.988;2.408;2023-04-25T02:15:44;100421.28;;;12.39;61.78
21290;BME280;10804;48.988;2.408;2023-04-25T02:18:16;100420.47;;;12.38;62.16
21290;BME280;10804;48.988;2.408;2023-04-25T02:20:44;100422.28;;;12.36;61.99
21290;BME280;10804;48.988;2.408;2023-04-25T02:23:12;100425.78;;;12.35;61.99
21290;BME280;10804;48.988;2.408;2023-04-25T02:25:41;100408.69;;;12.27;61.96
21290;BME280;10804;48.988;2.408;2023-04-25T02:28:10;100425.91;;;12.32;61.87
21290;BME280;10804;48.988;2.408;2023-04-25T02:30:37;100424.22;;;12.31;61.88
21290;BME280;10804;48.988;2.408;2023-04-25T02:33:05;100413.06;;;12.26;62.11
21290;BME280;10804;48.988;2.408;2023-04-25T02:35:32;100424.25;;;12.30;62.07
21290;BME280;10804;48.988;2.408;2023-04-25T02:37:59;100426.03;;;12.29;61.98
21290;BME280;10804;48.988;2.408;2023-04-25T02:40:27;100419.22;;;12.25;61.89
21290;BME280;10804;48.988;2.408;2023-04-25T02:42:54;100413.13;;;12.25;62.16
21290;BME280;10804;48.988;2.408;2023-04-25T02:45:23;100423.66;;;12.23;62.14
21290;BME280;10804;48.988;2.408;2023-04-25T02:47:50;100425.41;;;12.23;61.93
21290;BME280;10804;48.988;2.408;2023-04-25T02:50:19;100417.50;;;12.24;62.23
21290;BME280;10804;48.988;2.408;2023-04-25T02:52:46;100414.94;;;12.23;62.10
21290;BME280;10804;48.988;2.408;2023-04-25T02:55:18;100413.25;;;12.22;61.97
21290;BME280;10804;48.988;2.408;2023-04-25T02:57:46;100423.81;;;12.19;61.97
21290;BME280;10804;48.988;2.408;2023-04-25T03:00:31;100423.75;;;12.20;62.02
21290;BME280;10804;48.988;2.408;2023-04-25T03:02:58;100421.13;;;12.20;61.99
21290;BME280;10804;48.988;2.408;2023-04-25T03:05:26;100416.91;;;12.18;61.98
21290;BME280;10804;48.988;2.408;2023-04-25T03:07:53;100431.72;;;12.17;61.93
21290;BME280;10804;48.988;2.408;2023-04-25T03:10:20;100419.56;;;12.16;62.03
21290;BME280;10804;48.988;2.408;2023-04-25T03:12:48;100427.50;;;12.13;61.84
21290;BME280;10804;48.988;2.408;2023-04-25T03:15:15;100423.09;;;12.15;61.98
21290;BME280;10804;48.988;2.408;2023-04-25T03:17:45;100419.66;;;12.13;62.01
21290;BME280;10804;48.988;2.408;2023-04-25T03:20:12;100418.06;;;12.09;61.78
21290;BME280;10804;48.988;2.408;2023-04-25T03:22:40;100417.16;;;12.10;62.10
21290;BME280;10804;48.988;2.408;2023-04-25T03:25:07;100414.53;;;12.10;62.06
21290;BME280;10804;48.988;2.408;2023-04-25T03:27:35;100416.31;;;12.10;61.84
21290;BME280;10804;48.988;2.408;2023-04-25T03:30:03;100414.59;;;12.09;61.90
21290;BME280;10804;48.988;2.408;2023-04-25T03:32:31;100418.97;;;12.08;61.92
21290;BME280;10804;48.988;2.408;2023-04-25T03:35:00;100412.06;;;12.07;62.20
21290;BME280;10804;48.988;2.408;2023-04-25T03:37:29;100419.91;;;12.07;62.02
21290;BME280;10804;48.988;2.408;2023-04-25T03:39:56;100418.19;;;12.06;61.96
21290;BME280;10804;48.988;2.408;2023-04-25T03:42:31;100433.88;;;12.06;62.16
21290;BME280;10804;48.988;2.408;2023-04-25T03:44:58;100434.84;;;12.04;62.09
21290;BME280;10804;48.988;2.408;2023-04-25T03:47:26;100436.53;;;12.05;62.09
21290;BME280;10804;48.988;2.408;2023-04-25T03:49:55;100437.38;;;12.05;62.10
21290;BME280;10804;48.988;2.408;2023-04-25T03:52:24;100442.69;;;12.04;61.99
21290;BME280;10804;48.988;2.408;2023-04-25T03:54:52;100447.09;;;12.02;61.98
21290;BME280;10804;48.988;2.408;2023-04-25T03:57:23;100442.72;;;12.02;62.05
21290;BME280;10804;48.988;2.408;2023-04-25T03:59:50;100449.66;;;12.03;61.87
21290;BME280;10804;48.988;2.408;2023-04-25T04:02:18;100451.47;;;12.01;61.87
21290;BME280;10804;48.988;2.408;2023-04-25T04:04:46;100452.38;;;12.00;61.94
21290;BME280;10804;48.988;2.408;2023-04-25T04:07:14;100461.06;;;12.01;61.95
21290;BME280;10804;48.988;2.408;2023-04-25T04:09:46;100459.44;;;11.98;62.10
21290;BME280;10804;48.988;2.408;2023-04-25T04:12:19;100460.28;;;11.99;61.98
21290;BME280;10804;48.988;2.408;2023-04-25T04:14:47;100456.81;;;11.98;62.12
21290;BME280;10804;48.988;2.408;2023-04-25T04:17:14;100468.97;;;11.99;62.04
21290;BME280;10804;48.988;2.408;2023-04-25T04:19:42;100464.66;;;11.98;62.04
21290;BME280;10804;48.988;2.408;2023-04-25T04:22:18;100460.22;;;12.00;61.82
21290;BME280;10804;48.988;2.408;2023-04-25T04:24:48;100463.75;;;11.99;61.88
21290;BME280;10804;48.988;2.408;2023-04-25T04:27:21;100454.41;;;11.92;62.11
21290;BME280;10804;48.988;2.408;2023-04-25T04:30:16;100468.97;;;11.99;61.77
21290;BME280;10804;48.988;2.408;2023-04-25T04:32:55;100467.31;;;11.97;61.97
21290;BME280;10804;48.988;2.408;2023-04-25T04:35:23;100473.38;;;11.97;61.85
21290;BME280;10804;48.988;2.408;2023-04-25T04:37:52;100478.69;;;11.96;62.01
21290;BME280;10804;48.988;2.408;2023-04-25T04:40:22;100475.16;;;11.97;61.98
21290;BME280;10804;48.988;2.408;2023-04-25T04:43:01;100481.22;;;11.97;61.91
21290;BME280;10804;48.988;2.408;2023-04-25T04:45:47;100486.44;;;11.97;61.86
21290;BME280;10804;48.988;2.408;2023-04-25T04:48:31;100489.97;;;11.96;61.83
21290;BME280;10804;48.988;2.408;2023-04-25T04:51:21;100492.66;;;11.95;61.83
21290;BME280;10804;48.988;2.408;2023-04-25T04:53:54;100503.03;;;11.96;61.95
21290;BME280;10804;48.988;2.408;2023-04-25T04:56:52;100503.94;;;11.95;61.75
21290;BME280;10804;48.988;2.408;2023-04-25T04:59:50;100499.63;;;11.94;61.84
21290;BME280;10804;48.988;2.408;2023-04-25T05:02:56;100509.19;;;11.95;61.73
21290;BME280;10804;48.988;2.408;2023-04-25T05:05:30;100504.91;;;11.93;61.89
21290;BME280;10804;48.988;2.408;2023-04-25T05:08:33;100515.31;;;11.94;61.83
21290;BME280;10804;48.988;2.408;2023-04-25T05:11:33;100523.16;;;11.94;61.93
21290;BME280;10804;48.988;2.408;2023-04-25T05:14:24;100524.03;;;11.95;61.90
21290;BME280;10804;48.988;2.408;2023-04-25T05:17:15;100523.16;;;11.94;61.90
21290;BME280;10804;48.988;2.408;2023-04-25T05:20:01;100533.63;;;11.94;61.90
21290;BME280;10804;48.988;2.408;2023-04-25T05:22:50;100551.91;;;11.94;61.77
21290;BME280;10804;48.988;2.408;2023-04-25T05:25:33;100551.13;;;11.92;61.87
21290;BME280;10804;48.988;2.408;2023-04-25T05:28:13;100554.53;;;11.94;61.78
21290;BME280;10804;48.988;2.408;2023-04-25T05:31:00;100549.34;;;11.93;61.69
21290;BME280;10804;48.988;2.408;2023-04-25T05:33:31;100557.16;;;11.93;61.71
21290;BME280;10804;48.988;2.408;2023-04-25T05:35:59;100557.13;;;11.94;61.73
21290;BME280;10804;48.988;2.408;2023-04-25T05:38:27;100571.09;;;11.93;61.82
21290;BME280;10804;48.988;2.408;2023-04-25T05:41:13;100571.16;;;11.92;61.76
21290;BME280;10804;48.988;2.408;2023-04-25T05:43:48;100579.84;;;11.92;61.81
21290;BME280;10804;48.988;2.408;2023-04-25T05:46:32;100583.41;;;11.90;61.89
21290;BME280;10804;48.988;2.408;2023-04-25T05:49:17;100585.09;;;11.92;61.84
21290;BME280;10804;48.988;2.408;2023-04-25T05:51:53;100593.75;;;11.93;61.71
21290;BME280;10804;48.988;2.408;2023-04-25T05:54:38;100605.09;;;11.93;62.01
21290;BME280;10804;48.988;2.408;2023-04-25T05:57:06;100588.81;;;11.85;61.51
21290;BME280;10804;48.988;2.408;2023-04-25T05:59:33;100606.81;;;11.93;61.61
21290;BME280;10804;48.988;2.408;2023-04-25T06:02:03;100612.13;;;11.91;61.77
21290;BME280;10804;48.988;2.408;2023-04-25T06:04:34;100603.56;;;11.86;61.64
21290;BME280;10804;48.988;2.408;2023-04-25T06:07:01;100609.44;;;11.93;61.57
21290;BME280;10804;48.988;2.408;2023-04-25T06:09:28;100611.09;;;11.95;61.74
21290;BME280;10804;48.988;2.408;2023-04-25T06:11:56;100612.88;;;11.95;61.70
21290;BME280;10804;48.988;2.408;2023-04-25T06:14:23;100614.66;;;11.93;61.75
21290;BME280;10804;48.988;2.408;2023-04-25T06:16:51;100597.56;;;11.84;61.63
21290;BME280;10804;48.988;2.408;2023-04-25T06:19:20;100618.94;;;11.95;61.58
21290;BME280;10804;48.988;2.408;2023-04-25T06:21:47;100612.00;;;11.94;61.39
21290;BME280;10804;48.988;2.408;2023-04-25T06:24:15;100619.69;;;11.99;61.61
21290;BME280;10804;48.988;2.408;2023-04-25T06:26:42;100623.19;;;11.99;61.52
21290;BME280;10804;48.988;2.408;2023-04-25T06:29:10;100568.47;;;11.67;61.41
21290;BME280;10804;48.988;2.408;2023-04-25T06:31:37;100624.88;;;12.00;61.46
21290;BME280;10804;48.988;2.408;2023-04-25T06:34:05;100624.81;;;12.02;61.59
21290;BME280;10804;48.988;2.408;2023-04-25T06:36:38;100627.38;;;12.03;61.37
21290;BME280;10804;48.988;2.408;2023-04-25T06:39:10;100634.31;;;12.04;61.57
21290;BME280;10804;48.988;2.408;2023-04-25T06:41:37;100644.69;;;12.07;61.36
21290;BME280;10804;48.988;2.408;2023-04-25T06:44:07;100650.75;;;12.08;61.36
21290;BME280;10804;48.988;2.408;2023-04-25T06:46:39;100648.13;;;12.08;61.46
21290;BME280;10804;48.988;2.408;2023-04-25T06:49:06;100664.66;;;12.10;61.56
21290;BME280;10804;48.988;2.408;2023-04-25T06:51:34;100666.41;;;12.09;61.09
21290;BME280;10804;48.988;2.408;2023-04-25T06:54:03;100674.13;;;12.12;61.41
21290;BME280;10804;48.988;2.408;2023-04-25T06:56:40;100677.56;;;12.14;61.12
21290;BME280;10804;48.988;2.408;2023-04-25T06:59:13;100675.81;;;12.13;61.07
21290;BME280;10804;48.988;2.408;2023-04-25T07:01:42;100682.78;;;12.14;61.08
21290;BME280;10804;48.988;2.408;2023-04-25T07:04:15;100681.94;;;12.14;61.19
21290;BME280;10804;48.988;2.408;2023-04-25T07:06:48;100687.13;;;12.15;61.33
21290;BME280;10804;48.988;2.408;2023-04-25T07:09:20;100694.06;;;12.16;61.00
21290;BME280;10804;48.988;2.408;2023-04-25T07:11:49;100644.44;;;11.89;61.06
21290;BME280;10804;48.988;2.408;2023-04-25T07:14:17;100695.78;;;12.16;61.31
21290;BME280;10804;48.988;2.408;2023-04-25T07:16:45;100703.63;;;12.16;61.36
21290;BME280;10804;48.988;2.408;2023-04-25T07:19:13;100710.66;;;12.15;61.36
21290;BME280;10804;48.988;2.408;2023-04-25T07:21:40;100705.41;;;12.15;61.23
21290;BME280;10804;48.988;2.408;2023-04-25T07:24:08;100710.66;;;12.15;61.18
21290;BME280;10804;48.988;2.408;2023-04-25T07:26:41;100717.66;;;12.13;61.17
21290;BME280;10804;48.988;2.408;2023-04-25T07:29:19;100722.00;;;12.14;61.01
21290;BME280;10804;48.988;2.408;2023-04-25T07:31:46;100719.44;;;12.13;61.03
21290;BME280;10804;48.988;2.408;2023-04-25T07:34:14;100715.91;;;12.14;61.28
21290;BME280;10804;48.988;2.408;2023-04-25T07:36:41;100731.56;;;12.15;61.05
21290;BME280;10804;48.988;2.408;2023-04-25T07:39:10;100730.69;;;12.15;61.12
21290;BME280;10804;48.988;2.408;2023-04-25T07:41:38;100724.63;;;12.14;61.25
21290;BME280;10804;48.988;2.408;2023-04-25T07:44:08;100728.03;;;12.16;61.10
21290;BME280;10804;48.988;2.408;2023-04-25T07:46:35;100721.94;;;12.16;61.01
21290;BME280;10804;48.988;2.408;2023-04-25T07:49:04;100737.63;;;12.16;61.17
21290;BME280;10804;48.988;2.408;2023-04-25T07:51:32;100742.78;;;12.19;60.50
21290;BME280;10804;48.988;2.408;2023-04-25T07:54:04;100742.69;;;12.20;61.12
21290;BME280;10804;48.988;2.408;2023-04-25T07:56:36;100747.06;;;12.21;61.13
21290;BME280;10804;48.988;2.408;2023-04-25T07:59:03;100748.69;;;12.24;61.12
21290;BME280;10804;48.988;2.408;2023-04-25T08:01:34;100750.34;;;12.26;61.27
21290;BME280;10804;48.988;2.408;2023-04-25T08:04:04;100760.75;;;12.29;61.07
21290;BME280;10804;48.988;2.408;2023-04-25T08:06:47;100754.69;;;12.27;61.16
21290;BME280;10804;48.988;2.408;2023-04-25T08:09:20;100768.38;;;12.35;61.13
21290;BME280;10804;48.988;2.408;2023-04-25T08:11:48;100773.56;;;12.37;61.05
21290;BME280;10804;48.988;2.408;2023-04-25T08:14:19;100778.66;;;12.40;60.92
21290;BME280;10804;48.988;2.408;2023-04-25T08:16:49;100784.66;;;12.43;61.07
21290;BME280;10804;48.988;2.408;2023-04-25T08:19:18;100784.59;;;12.46;61.08
21290;BME280;10804;48.988;2.408;2023-04-25T08:21:46;100794.09;;;12.49;60.87
21290;BME280;10804;48.988;2.408;2023-04-25T08:24:19;100793.13;;;12.51;60.99
21290;BME280;10804;48.988;2.408;2023-04-25T08:26:46;100798.25;;;12.54;60.87
21290;BME280;10804;48.988;2.408;2023-04-25T08:29:16;100796.44;;;12.56;60.75
21290;BME280;10804;48.988;2.408;2023-04-25T08:31:44;100801.59;;;12.59;60.66
21290;BME280;10804;48.988;2.408;2023-04-25T08:34:14;100799.78;;;12.61;60.77
21290;BME280;10804;48.988;2.408;2023-04-25T08:36:48;100805.00;;;12.61;60.93
21290;BME280;10804;48.988;2.408;2023-04-25T08:39:21;100811.00;;;12.65;60.73
21290;BME280;10804;48.988;2.408;2023-04-25T08:42:19;100815.28;;;12.67;60.91
21290;BME280;10804;48.988;2.408;2023-04-25T08:44:49;100806.72;;;12.62;60.93
21290;BME280;10804;48.988;2.408;2023-04-25T08:47:19;100813.47;;;12.69;60.59
21290;BME280;10804;48.988;2.408;2023-04-25T08:49:55;100827.34;;;12.71;60.65
21290;BME280;10804;48.988;2.408;2023-04-25T08:52:23;100824.69;;;12.73;60.65
21290;BME280;10804;48.988;2.408;2023-04-25T08:54:52;100828.25;;;12.70;60.65
21290;BME280;10804;48.988;2.408;2023-04-25T08:57:21;100835.09;;;12.74;60.60
21290;BME280;10804;48.988;2.408;2023-04-25T08:59:51;100837.69;;;12.74;60.53
21290;BME280;10804;48.988;2.408;2023-04-25T09:02:21;100841.97;;;12.77;60.53
21290;BME280;10804;48.988;2.408;2023-04-25T09:04:51;100846.31;;;12.78;60.68
21290;BME280;10804;48.988;2.408;2023-04-25T09:07:22;100854.13;;;12.79;60.56
21290;BME280;10804;48.988;2.408;2023-04-25T09:09:50;100862.78;;;12.81;60.79
21290;BME280;10804;48.988;2.408;2023-04-25T09:12:20;100852.31;;;12.81;60.62
21290;BME280;10804;48.988;2.408;2023-04-25T09:15:03;100857.50;;;12.83;60.69
21290;BME280;10804;48.988;2.408;2023-04-25T09:17:55;100862.69;;;12.84;60.45
21290;BME280;10804;48.988;2.408;2023-04-25T09:20:23;100873.09;;;12.86;60.52
21290;BME280;10804;48.988;2.408;2023-04-25T09:23:02;100867.84;;;12.86;60.65
21290;BME280;10804;48.988;2.408;2023-04-25T09:25:34;100873.03;;;12.87;60.49
21290;BME280;10804;48.988;2.408;2023-04-25T09:28:06;100870.44;;;12.87;60.75
21290;BME280;10804;48.988;2.408;2023-04-25T09:30:34;100871.31;;;12.88;60.38
21290;BME280;10804;48.988;2.408;2023-04-25T09:33:29;100879.00;;;12.92;60.45
21290;BME280;10804;48.988;2.408;2023-04-25T09:36:03;100877.22;;;12.94;60.68
21290;BME280;10804;48.988;2.408;2023-04-25T09:38:46;100891.09;;;12.96;60.35
21290;BME280;10804;48.988;2.408;2023-04-25T09:41:23;100899.78;;;12.98;60.74
21290;BME280;10804;48.988;2.408;2023-04-25T09:43:51;100891.97;;;12.97;60.68
21290;BME280;10804;48.988;2.408;2023-04-25T09:46:19;100900.53;;;13.02;60.31
21290;BME280;10804;48.988;2.408;2023-04-25T09:48:52;100896.13;;;13.02;60.47
21290;BME280;10804;48.988;2.408;2023-04-25T09:51:28;100894.31;;;13.04;60.41
21290;BME280;10804;48.988;2.408;2023-04-25T09:53:59;100887.28;;;13.06;60.36
21290;BME280;10804;48.988;2.408;2023-04-25T09:56:48;100894.22;;;13.07;60.37
21290;BME280;10804;48.988;2.408;2023-04-25T09:59:19;100902.13;;;13.06;60.29
21290;BME280;10804;48.988;2.408;2023-04-25T10:01:48;100898.41;;;13.13;60.61
21290;BME280;10804;48.988;2.408;2023-04-25T10:04:25;100908.84;;;13.14;60.31
21290;BME280;10804;48.988;2.408;2023-04-25T10:06:59;100916.59;;;13.17;60.27
21290;BME280;10804;48.988;2.408;2023-04-25T10:09:29;100910.38;;;13.20;60.20
21290;BME280;10804;48.988;2.408;2023-04-25T10:11:59;100906.00;;;13.20;60.47
21290;BME280;10804;48.988;2.408;2023-04-25T10:14:27;100923.31;;;13.24;60.40
21290;BME280;10804;48.988;2.408;2023-04-25T10:16:57;100920.59;;;13.27;60.27
21290;BME280;10804;48.988;2.408;2023-04-25T10:19:25;100920.56;;;13.29;60.06
21290;BME280;10804;48.988;2.408;2023-04-25T10:21:58;100904.88;;;13.27;60.15
21290;BME280;10804;48.988;2.408;2023-04-25T10:24:30;100915.28;;;13.30;59.96
21290;BME280;10804;48.988;2.408;2023-04-25T10:26:58;100927.34;;;13.34;60.21
21290;BME280;10804;48.988;2.408;2023-04-25T10:29:26;100924.69;;;13.36;60.16
21290;BME280;10804;48.988;2.408;2023-04-25T10:31:53;100923.78;;;13.37;59.89
21290;BME280;10804;48.988;2.408;2023-04-25T10:34:24;100917.56;;;13.39;60.16
21290;BME280;10804;48.988;2.408;2023-04-25T10:36:53;100913.22;;;13.40;60.06
21290;BME280;10804;48.988;2.408;2023-04-25T10:39:26;100917.47;;;13.42;60.18
21290;BME280;10804;48.988;2.408;2023-04-25T10:41:57;100913.97;;;13.43;59.76
21290;BME280;10804;48.988;2.408;2023-04-25T10:44:26;100922.63;;;13.45;59.79
21290;BME280;10804;48.988;2.408;2023-04-25T10:46:55;100920.78;;;13.47;59.81
21290;BME280;10804;48.988;2.408;2023-04-25T10:49:33;100931.16;;;13.50;59.77
21290;BME280;10804;48.988;2.408;2023-04-25T10:52:11;100937.22;;;13.52;59.70
21290;BME280;10804;48.988;2.408;2023-04-25T10:54:45;100924.03;;;13.54;60.06
21290;BME280;10804;48.988;2.408;2023-04-25T10:57:35;100930.88;;;13.59;59.69
21290;BME280;10804;48.988;2.408;2023-04-25T11:00:09;100926.41;;;13.61;59.66
21290;BME280;10804;48.988;2.408;2023-04-25T11:02:41;100933.31;;;13.64;59.90
21290;BME280;10804;48.988;2.408;2023-04-25T11:05:09;100939.41;;;13.64;59.76
21290;BME280;10804;48.988;2.408;2023-04-25T11:07:45;100941.03;;;13.68;59.82
21290;BME280;10804;48.988;2.408;2023-04-25T11:10:16;100940.16;;;13.68;59.76
21290;BME280;10804;48.988;2.408;2023-04-25T11:12:46;100947.97;;;13.69;59.82
21290;BME280;10804;48.988;2.408;2023-04-25T11:15:13;100948.75;;;13.71;59.53
21290;BME280;10804;48.988;2.408;2023-04-25T11:17:41;100941.69;;;13.73;59.45
21290;BME280;10804;48.988;2.408;2023-04-25T11:20:09;100945.16;;;13.75;59.61
21290;BME280;10804;48.988;2.408;2023-04-25T11:22:40;100948.56;;;13.77;59.65
21290;BME280;10804;48.988;2.408;2023-04-25T11:25:09;100952.88;;;13.78;59.40
21290;BME280;10804;48.988;2.408;2023-04-25T11:27:50;100957.22;;;13.79;59.31
21290;BME280;10804;48.988;2.408;2023-04-25T11:30:19;100947.59;;;13.80;59.30
21290;BME280;10804;48.988;2.408;2023-04-25T11:32:47;100954.53;;;13.81;59.67
21290;BME280;10804;48.988;2.408;2023-04-25T11:35:14;100950.13;;;13.81;59.54
21290;BME280;10804;48.988;2.408;2023-04-25T11:37:42;100958.88;;;13.82;59.56
21290;BME280;10804;48.988;2.408;2023-04-25T11:40:11;100955.47;;;13.80;59.42
21290;BME280;10804;48.988;2.408;2023-04-25T11:42:39;100959.75;;;13.82;59.58
21290;BME280;10804;48.988;2.408;2023-04-25T11:45:12;100954.53;;;13.81;59.53
21290;BME280;10804;48.988;2.408;2023-04-25T11:47:39;100965.88;;;13.81;59.39
21290;BME280;10804;48.988;2.408;2023-04-25T11:50:08;100956.28;;;13.80;59.28
21290;BME280;10804;48.988;2.408;2023-04-25T11:52:37;100953.75;;;13.79;59.56
21290;BME280;10804;48.988;2.408;2023-04-25T11:55:06;100952.88;;;13.78;59.59
21290;BME280;10804;48.988;2.408;2023-04-25T11:57:34;100947.66;;;13.78;59.40
21290;BME280;10804;48.988;2.408;2023-04-25T12:00:10;100944.31;;;13.73;59.45
21290;BME280;10804;48.988;2.408;2023-04-25T12:02:44;100958.13;;;13.78;59.41
21290;BME280;10804;48.988;2.408;2023-04-25T12:05:13;100945.94;;;13.77;59.52
21290;BME280;10804;48.988;2.408;2023-04-25T12:07:41;100938.25;;;13.73;59.54
21290;BME280;10804;48.988;2.408;2023-04-25T12:10:10;100952.09;;;13.76;59.54
21290;BME280;10804;48.988;2.408;2023-04-25T12:12:41;100955.47;;;13.80;59.55
21290;BME280;10804;48.988;2.408;2023-04-25T12:15:10;100950.13;;;13.81;59.35
21290;BME280;10804;48.988;2.408;2023-04-25T12:17:38;100951.94;;;13.81;59.47
21290;BME280;10804;48.988;2.408;2023-04-25T12:20:09;100954.38;;;13.85;59.71
21290;BME280;10804;48.988;2.408;2023-04-25T12:22:37;100952.56;;;13.87;59.60
21290;BME280;10804;48.988;2.408;2023-04-25T12:25:05;100956.00;;;13.89;59.55
21290;BME280;10804;48.988;2.408;2023-04-25T12:27:33;100956.03;;;13.88;59.68
21290;BME280;10804;48.988;2.408;2023-04-25T12:30:02;100958.53;;;13.91;59.69
21290;BME280;10804;48.988;2.408;2023-04-25T12:32:31;100957.63;;;13.92;59.53
21290;BME280;10804;48.988;2.408;2023-04-25T12:34:58;100967.16;;;13.94;59.39
21290;BME280;10804;48.988;2.408;2023-04-25T12:37:28;100969.78;;;13.94;59.36
21290;BME280;10804;48.988;2.408;2023-04-25T12:39:55;100968.88;;;13.95;59.41
21290;BME280;10804;48.988;2.408;2023-04-25T12:42:23;100971.44;;;13.97;59.59
21290;BME280;10804;48.988;2.408;2023-04-25T12:44:50;100968.78;;;13.98;59.32
21290;BME280;10804;48.988;2.408;2023-04-25T12:47:18;100959.22;;;13.97;59.20
21290;BME280;10804;48.988;2.408;2023-04-25T12:49:45;100973.91;;;14.01;59.58
21290;BME280;10804;48.988;2.408;2023-04-25T12:52:13;100960.00;;;13.99;59.46
21290;BME280;10804;48.988;2.408;2023-04-25T12:54:42;100966.78;;;14.05;59.62
21290;BME280;10804;48.988;2.408;2023-04-25T12:57:09;100958.88;;;14.06;59.33
21290;BME280;10804;48.988;2.408;2023-04-25T12:59:37;100964.13;;;14.06;59.43
21290;BME280;10804;48.988;2.408;2023-04-25T13:02:04;100970.03;;;14.11;59.22
21290;BME280;10804;48.988;2.408;2023-04-25T13:04:32;100961.19;;;14.14;59.11
21290;BME280;10804;48.988;2.408;2023-04-25T13:06:59;100962.88;;;14.16;59.22
21290;BME280;10804;48.988;2.408;2023-04-25T13:09:26;100966.22;;;14.21;59.12
21290;BME280;10804;48.988;2.408;2023-04-25T13:11:55;100964.25;;;14.26;59.22